sensor_id;sensor_type;location;lat;lon;timestamp;pressure;altitude;pressure_sealevel;temperature;humidity
20710;BME280;10516;51.518;9.864;2022-12-18T00:01:23;100147.72;;;-6.61;70.66
20710;BME280;10516;51.518;9.864;2022-12-18T00:03:50;100153.75;;;-6.61;71.17
20710;BME280;10516;51.518;9.864;2022-12-18T00:06:16;100156.16;;;-6.58;70.81
20710;BME280;10516;51.518;9.864;2022-12-18T00:08:43;100150.97;;;-6.58;70.90
20710;BME280;10516;51.518;9.864;2022-12-18T00:11:18;100149.53;;;-6.62;70.90
20710;BME280;10516;51.518;9.864;2022-12-18T00:13:44;100138.19;;;-6.61;70.97
20710;BME280;10516;51.518;9.864;2022-12-18T00:16:12;100138.00;;;-6.70;71.02
20710;BME280;10516;51.518;9.864;2022-12-18T00:18:37;100154.44;;;-6.46;70.50
20710;BME280;10516;51.518;9.864;2022-12-18T00:21:06;100159.94;;;-6.38;70.47
20710;BME280;10516;51.518;9.864;2022-12-18T00:23:33;100167.22;;;-6.43;70.24
20710;BME280;10516;51.518;9.864;2022-12-18T00:26:06;100166.81;;;-6.50;70.18
20710;BME280;10516;51.518;9.864;2022-12-18T00:28:32;100156.53;;;-6.51;70.58
20710;BME280;10516;51.518;9.864;2022-12-18T00:31:09;100143.81;;;-8.05;72.58
20710;BME280;10516;51.518;9.864;2022-12-18T00:33:36;100165.84;;;-6.85;72.27
20710;BME280;10516;51.518;9.864;2022-12-18T00:36:22;100155.91;;;-6.55;71.26
20710;BME280;10516;51.518;9.864;2022-12-18T00:38:48;100160.31;;;-6.32;69.82
20710;BME280;10516;51.518;9.864;2022-12-18T00:41:15;100169.28;;;-6.12;69.78
20710;BME280;10516;51.518;9.864;2022-12-18T00:44:02;100167.13;;;-6.18;69.61
20710;BME280;10516;51.518;9.864;2022-12-18T00:46:27;100172.59;;;-6.34;69.86
20710;BME280;10516;51.518;9.864;2022-12-18T00:48:53;100178.00;;;-6.37;69.49
20710;BME280;10516;51.518;9.864;2022-12-18T00:51:18;100170.44;;;-6.52;70.22
20710;BME280;10516;51.518;9.864;2022-12-18T00:53:44;100184.28;;;-6.52;70.47
20710;BME280;10516;51.518;9.864;2022-12-18T00:56:09;100160.44;;;-6.69;70.19
20710;BME280;10516;51.518;9.864;2022-12-18T00:58:35;100180.16;;;-6.67;70.71
20710;BME280;10516;51.518;9.864;2022-12-18T01:01:01;100177.13;;;-6.61;70.59
20710;BME280;10516;51.518;9.864;2022-12-18T01:03:28;100183.56;;;-6.54;70.31
20710;BME280;10516;51.518;9.864;2022-12-18T01:05:53;100168.16;;;-6.44;69.94
20710;BME280;10516;51.518;9.864;2022-12-18T01:08:19;100180.78;;;-6.40;69.97
20710;BME280;10516;51.518;9.864;2022-12-18T01:10:44;100186.66;;;-6.49;70.19
20710;BME280;10516;51.518;9.864;2022-12-18T01:13:09;100192.22;;;-6.30;69.36
20710;BME280;10516;51.518;9.864;2022-12-18T01:15:35;100181.38;;;-6.24;69.42
20710;BME280;10516;51.518;9.864;2022-12-18T01:18:00;100171.69;;;-6.22;69.34
20710;BME280;10516;51.518;9.864;2022-12-18T01:20:26;100184.94;;;-6.37;69.60
20710;BME280;10516;51.518;9.864;2022-12-18T01:22:51;100186.09;;;-7.92;72.10
20710;BME280;10516;51.518;9.864;2022-12-18T01:25:17;100183.19;;;-7.36;73.01
20710;BME280;10516;51.518;9.864;2022-12-18T01:27:42;100198.53;;;-6.70;71.62
20710;BME280;10516;51.518;9.864;2022-12-18T01:30:08;100201.47;;;-6.38;70.17
20710;BME280;10516;51.518;9.864;2022-12-18T01:32:34;100200.00;;;-7.16;71.08
20710;BME280;10516;51.518;9.864;2022-12-18T01:34:59;100203.44;;;-6.78;72.25
20710;BME280;10516;51.518;9.864;2022-12-18T01:37:24;100188.09;;;-6.45;70.25
20710;BME280;10516;51.518;9.864;2022-12-18T01:39:52;100189.34;;;-6.50;70.10
20710;BME280;10516;51.518;9.864;2022-12-18T01:42:19;100194.63;;;-6.39;69.61
20710;BME280;10516;51.518;9.864;2022-12-18T01:44:58;100202.63;;;-6.42;69.31
20710;BME280;10516;51.518;9.864;2022-12-18T01:47:44;100209.59;;;-6.43;69.50
20710;BME280;10516;51.518;9.864;2022-12-18T01:50:20;100208.75;;;-6.43;69.36
20710;BME280;10516;51.518;9.864;2022-12-18T01:53:10;100199.97;;;-6.53;69.26
20710;BME280;10516;51.518;9.864;2022-12-18T01:55:40;100201.72;;;-6.54;69.73
20710;BME280;10516;51.518;9.864;2022-12-18T01:58:07;100212.09;;;-6.54;69.47
20710;BME280;10516;51.518;9.864;2022-12-18T02:00:32;100209.16;;;-6.37;69.41
20710;BME280;10516;51.518;9.864;2022-12-18T02:02:58;100186.97;;;-6.53;69.16
20710;BME280;10516;51.518;9.864;2022-12-18T02:17:07;100204.84;;;-6.61;69.58
20710;BME280;10516;51.518;9.864;2022-12-18T02:19:51;100208.56;;;-6.53;69.45
20710;BME280;10516;51.518;9.864;2022-12-18T02:27:39;100195.75;;;-6.92;68.98
20710;BME280;10516;51.518;9.864;2022-12-18T02:30:06;100189.22;;;-6.98;70.76
20710;BME280;10516;51.518;9.864;2022-12-18T02:32:37;100189.31;;;-7.12;70.31
20710;BME280;10516;51.518;9.864;2022-12-18T02:35:06;100193.91;;;-7.03;70.56
20710;BME280;10516;51.518;9.864;2022-12-18T02:37:34;100186.53;;;-7.09;70.67
20710;BME280;10516;51.518;9.864;2022-12-18T02:40:02;100194.69;;;-6.64;70.05
20710;BME280;10516;51.518;9.864;2022-12-18T02:42:29;100199.66;;;-6.49;69.30
20710;BME280;10516;51.518;9.864;2022-12-18T02:44:54;100197.59;;;-7.57;71.20
20710;BME280;10516;51.518;9.864;2022-12-18T02:47:22;100199.69;;;-6.74;70.04
20710;BME280;10516;51.518;9.864;2022-12-18T02:58:47;100199.75;;;-6.63;69.32
20710;BME280;10516;51.518;9.864;2022-12-18T03:01:34;100188.91;;;-7.43;69.28
20710;BME280;10516;51.518;9.864;2022-12-18T03:04:30;100199.59;;;-7.35;71.95
20710;BME280;10516;51.518;9.864;2022-12-18T03:07:01;100191.81;;;-6.98;70.01
20710;BME280;10516;51.518;9.864;2022-12-18T03:09:36;100205.94;;;-6.89;70.00
20710;BME280;10516;51.518;9.864;2022-12-18T03:12:10;100191.81;;;-6.98;69.54
20710;BME280;10516;51.518;9.864;2022-12-18T03:17:30;100188.38;;;-6.86;69.53
20710;BME280;10516;51.518;9.864;2022-12-18T03:19:59;100194.38;;;-7.73;69.29
20710;BME280;10516;51.518;9.864;2022-12-18T03:22:30;100185.06;;;-7.38;71.66
20710;BME280;10516;51.518;9.864;2022-12-18T03:24:59;100189.44;;;-6.88;69.68
20710;BME280;10516;51.518;9.864;2022-12-18T03:27:26;100187.16;;;-7.30;69.21
20710;BME280;10516;51.518;9.864;2022-12-18T03:30:13;100167.44;;;-6.95;69.49
20710;BME280;10516;51.518;9.864;2022-12-18T03:35:11;100160.88;;;-7.01;69.39
20710;BME280;10516;51.518;9.864;2022-12-18T03:37:38;100173.13;;;-6.90;69.25
20710;BME280;10516;51.518;9.864;2022-12-18T03:40:04;100178.66;;;-6.95;69.35
20710;BME280;10516;51.518;9.864;2022-12-18T03:42:59;100173.53;;;-6.83;68.66
20710;BME280;10516;51.518;9.864;2022-12-18T03:45:32;100153.84;;;-6.86;69.07
20710;BME280;10516;51.518;9.864;2022-12-18T03:48:04;100169.06;;;-6.69;68.62
20710;BME280;10516;51.518;9.864;2022-12-18T03:50:55;100181.81;;;-6.78;68.84
20710;BME280;10516;51.518;9.864;2022-12-18T03:53:36;100157.91;;;-6.95;68.79
20710;BME280;10516;51.518;9.864;2022-12-18T03:56:05;100170.13;;;-6.97;68.64
20710;BME280;10516;51.518;9.864;2022-12-18T03:58:32;100177.69;;;-6.94;68.82
20710;BME280;10516;51.518;9.864;2022-12-18T04:01:02;100175.81;;;-6.92;68.77
20710;BME280;10516;51.518;9.864;2022-12-18T04:03:29;100161.81;;;-6.89;68.90
20710;BME280;10516;51.518;9.864;2022-12-18T04:05:57;100164.50;;;-6.78;68.33
20710;BME280;10516;51.518;9.864;2022-12-18T04:08:24;100182.47;;;-6.88;68.05
20710;BME280;10516;51.518;9.864;2022-12-18T04:10:50;100173.13;;;-6.90;68.81
20710;BME280;10516;51.518;9.864;2022-12-18T04:13:24;100184.44;;;-6.91;68.18
20710;BME280;10516;51.518;9.864;2022-12-18T04:15:52;100165.56;;;-7.18;68.92
20710;BME280;10516;51.518;9.864;2022-12-18T04:18:17;100165.06;;;-7.11;68.32
20710;BME280;10516;51.518;9.864;2022-12-18T04:20:43;100164.03;;;-7.21;68.95
20710;BME280;10516;51.518;9.864;2022-12-18T04:23:08;100175.75;;;-7.15;68.85
20710;BME280;10516;51.518;9.864;2022-12-18T04:25:33;100174.31;;;-7.19;68.86
20710;BME280;10516;51.518;9.864;2022-12-18T04:27:59;100178.34;;;-7.15;68.48
20710;BME280;10516;51.518;9.864;2022-12-18T04:30:24;100180.22;;;-7.17;69.22
20710;BME280;10516;51.518;9.864;2022-12-18T04:32:49;100187.66;;;-7.00;69.10
20710;BME280;10516;51.518;9.864;2022-12-18T04:35:15;100189.34;;;-6.99;69.19
20710;BME280;10516;51.518;9.864;2022-12-18T04:37:40;100185.81;;;-7.11;68.67
20710;BME280;10516;51.518;9.864;2022-12-18T04:40:06;100205.72;;;-7.11;68.99
20710;BME280;10516;51.518;9.864;2022-12-18T04:42:31;100189.63;;;-7.16;69.20
20710;BME280;10516;51.518;9.864;2022-12-18T04:44:57;100200.00;;;-7.16;69.14
20710;BME280;10516;51.518;9.864;2022-12-18T04:47:22;100183.72;;;-7.18;69.04
20710;BME280;10516;51.518;9.864;2022-12-18T04:49:48;100175.94;;;-7.18;69.26
20710;BME280;10516;51.518;9.864;2022-12-18T04:52:13;100188.22;;;-7.08;69.04
20710;BME280;10516;51.518;9.864;2022-12-18T04:54:38;100179.59;;;-7.08;68.84
20710;BME280;10516;51.518;9.864;2022-12-18T04:57:04;100180.00;;;-7.02;69.33
20710;BME280;10516;51.518;9.864;2022-12-18T04:59:29;100197.72;;;-6.96;69.00
20710;BME280;10516;51.518;9.864;2022-12-18T05:01:54;100189.44;;;-7.13;69.43
20710;BME280;10516;51.518;9.864;2022-12-18T05:04:20;100179.06;;;-7.26;69.59
20710;BME280;10516;51.518;9.864;2022-12-18T05:06:45;100178.03;;;-7.23;69.66
20710;BME280;10516;51.518;9.864;2022-12-18T05:09:11;100193.28;;;-7.06;69.61
20710;BME280;10516;51.518;9.864;2022-12-18T05:11:36;100197.63;;;-7.19;69.39
20710;BME280;10516;51.518;9.864;2022-12-18T05:14:02;100212.78;;;-7.01;69.59
20710;BME280;10516;51.518;9.864;2022-12-18T05:16:27;100207.81;;;-7.04;69.14
20710;BME280;10516;51.518;9.864;2022-12-18T05:18:52;100217.13;;;-7.14;69.15
20710;BME280;10516;51.518;9.864;2022-12-18T05:21:18;100206.75;;;-7.14;69.47
20710;BME280;10516;51.518;9.864;2022-12-18T05:23:43;100204.81;;;-7.10;69.64
20710;BME280;10516;51.518;9.864;2022-12-18T05:26:09;100201.38;;;-7.11;69.15
20710;BME280;10516;51.518;9.864;2022-12-18T05:28:39;100197.22;;;-7.13;69.17
20710;BME280;10516;51.518;9.864;2022-12-18T05:31:04;100185.81;;;-7.23;69.03
20710;BME280;10516;51.518;9.864;2022-12-18T05:33:33;100206.44;;;-7.09;69.14
20710;BME280;10516;51.518;9.864;2022-12-18T05:36:00;100192.44;;;-7.19;69.16
20710;BME280;10516;51.518;9.864;2022-12-18T05:38:27;100194.81;;;-7.16;68.84
20710;BME280;10516;51.518;9.864;2022-12-18T05:40:53;100206.78;;;-7.01;68.84
20710;BME280;10516;51.518;9.864;2022-12-18T05:43:19;100196.47;;;-7.03;68.58
20710;BME280;10516;51.518;9.864;2022-12-18T05:45:47;100202.31;;;-6.99;68.35
20710;BME280;10516;51.518;9.864;2022-12-18T05:48:12;100182.91;;;-7.19;68.64
20710;BME280;10516;51.518;9.864;2022-12-18T05:50:39;100201.19;;;-7.08;68.89
20710;BME280;10516;51.518;9.864;2022-12-18T05:53:05;100188.31;;;-7.22;69.52
20710;BME280;10516;51.518;9.864;2022-12-18T05:55:35;100184.97;;;-7.24;69.29
20710;BME280;10516;51.518;9.864;2022-12-18T05:58:02;100200.75;;;-7.14;69.60
20710;BME280;10516;51.518;9.864;2022-12-18T06:00:27;100201.50;;;-7.12;69.70
20710;BME280;10516;51.518;9.864;2022-12-18T06:02:53;100192.03;;;-7.13;69.25
20710;BME280;10516;51.518;9.864;2022-12-18T06:05:18;100184.66;;;-7.19;69.93
20710;BME280;10516;51.518;9.864;2022-12-18T06:07:43;100191.84;;;-7.10;70.12
20710;BME280;10516;51.518;9.864;2022-12-18T06:10:09;100209.56;;;-7.04;69.91
20710;BME280;10516;51.518;9.864;2022-12-18T06:12:34;100195.34;;;-7.11;69.43
20710;BME280;10516;51.518;9.864;2022-12-18T06:15:00;100190.91;;;-7.22;69.76
20710;BME280;10516;51.518;9.864;2022-12-18T06:17:29;100188.81;;;-7.04;69.86
20710;BME280;10516;51.518;9.864;2022-12-18T06:19:55;100211.56;;;-7.08;69.52
20710;BME280;10516;51.518;9.864;2022-12-18T06:22:20;100204.28;;;-7.15;69.53
20710;BME280;10516;51.518;9.864;2022-12-18T06:24:46;100203.31;;;-7.91;71.35
20710;BME280;10516;51.518;9.864;2022-12-18T06:27:11;100200.91;;;-7.68;73.05
20710;BME280;10516;51.518;9.864;2022-12-18T06:29:36;100215.69;;;-7.18;71.38
20710;BME280;10516;51.518;9.864;2022-12-18T06:32:02;100223.91;;;-6.86;70.46
20710;BME280;10516;51.518;9.864;2022-12-18T06:34:27;100215.56;;;-6.78;69.28
20710;BME280;10516;51.518;9.864;2022-12-18T06:36:56;100208.91;;;-6.70;69.04
20710;BME280;10516;51.518;9.864;2022-12-18T06:39:21;100207.56;;;-6.75;68.53
20710;BME280;10516;51.518;9.864;2022-12-18T06:41:46;100223.97;;;-6.88;68.99
20710;BME280;10516;51.518;9.864;2022-12-18T06:44:12;100232.38;;;-6.97;69.20
20710;BME280;10516;51.518;9.864;2022-12-18T06:46:37;100227.13;;;-7.08;69.34
20710;BME280;10516;51.518;9.864;2022-12-18T06:49:03;100217.25;;;-7.15;69.51
20710;BME280;10516;51.518;9.864;2022-12-18T06:51:28;100211.53;;;-7.20;69.91
20710;BME280;10516;51.518;9.864;2022-12-18T06:53:54;100219.53;;;-7.11;69.45
20710;BME280;10516;51.518;9.864;2022-12-18T06:56:19;100223.47;;;-7.05;69.32
20710;BME280;10516;51.518;9.864;2022-12-18T06:58:44;100218.19;;;-6.91;69.05
20710;BME280;10516;51.518;9.864;2022-12-18T07:01:11;100212.59;;;-7.10;69.14
20710;BME280;10516;51.518;9.864;2022-12-18T07:03:38;100220.34;;;-6.85;68.84
20710;BME280;10516;51.518;9.864;2022-12-18T07:06:04;100220.56;;;-6.88;68.36
20710;BME280;10516;51.518;9.864;2022-12-18T07:08:30;100228.66;;;-7.05;68.94
20710;BME280;10516;51.518;9.864;2022-12-18T07:10:56;100216.81;;;-7.09;68.42
20710;BME280;10516;51.518;9.864;2022-12-18T07:13:22;100233.44;;;-6.99;68.76
20710;BME280;10516;51.518;9.864;2022-12-18T07:15:47;100225.03;;;-7.03;68.33
20710;BME280;10516;51.518;9.864;2022-12-18T07:18:13;100233.56;;;-6.88;68.55
20710;BME280;10516;51.518;9.864;2022-12-18T07:20:38;100232.91;;;-6.92;68.35
20710;BME280;10516;51.518;9.864;2022-12-18T07:23:04;100239.34;;;-6.97;68.46
20710;BME280;10516;51.518;9.864;2022-12-18T07:25:34;100261.44;;;-6.79;68.35
20710;BME280;10516;51.518;9.864;2022-12-18T07:28:00;100262.16;;;-6.77;67.76
20710;BME280;10516;51.518;9.864;2022-12-18T07:30:25;100258.31;;;-6.97;68.60
20710;BME280;10516;51.518;9.864;2022-12-18T07:32:50;100260.06;;;-7.22;69.35
20710;BME280;10516;51.518;9.864;2022-12-18T07:35:16;100269.41;;;-7.20;69.29
20710;BME280;10516;51.518;9.864;2022-12-18T07:37:41;100279.38;;;-7.14;69.64
20710;BME280;10516;51.518;9.864;2022-12-18T07:40:08;100277.75;;;-7.15;70.13
20710;BME280;10516;51.518;9.864;2022-12-18T07:42:33;100280.22;;;-7.13;69.83
20710;BME280;10516;51.518;9.864;2022-12-18T07:45:00;100285.41;;;-7.01;69.86
20710;BME280;10516;51.518;9.864;2022-12-18T07:47:29;100269.13;;;-7.03;69.41
20710;BME280;10516;51.518;9.864;2022-12-18T07:49:58;100277.22;;;-7.07;69.41
20710;BME280;10516;51.518;9.864;2022-12-18T07:52:23;100280.88;;;-6.97;69.62
20710;BME280;10516;51.518;9.864;2022-12-18T07:54:49;100280.25;;;-6.75;69.40
20710;BME280;10516;51.518;9.864;2022-12-18T07:57:15;100287.50;;;-6.68;69.11
20710;BME280;10516;51.518;9.864;2022-12-18T07:59:44;100274.22;;;-6.63;68.79
20710;BME280;10516;51.518;9.864;2022-12-18T08:02:09;100270.59;;;-6.86;68.93
20710;BME280;10516;51.518;9.864;2022-12-18T08:04:35;100275.66;;;-6.72;69.46
20710;BME280;10516;51.518;9.864;2022-12-18T08:07:00;100267.47;;;-6.66;69.71
20710;BME280;10516;51.518;9.864;2022-12-18T08:09:26;100256.34;;;-6.68;69.24
20710;BME280;10516;51.518;9.864;2022-12-18T08:11:51;100258.03;;;-6.67;69.40
20710;BME280;10516;51.518;9.864;2022-12-18T08:14:16;100246.28;;;-6.60;69.11
20710;BME280;10516;51.518;9.864;2022-12-18T08:16:42;100227.91;;;-6.69;69.17
20710;BME280;10516;51.518;9.864;2022-12-18T08:19:07;100240.78;;;-6.68;69.40
20710;BME280;10516;51.518;9.864;2022-12-18T08:21:35;100257.31;;;-6.69;69.78
20710;BME280;10516;51.518;9.864;2022-12-18T08:24:02;100237.88;;;-6.76;70.29
20710;BME280;10516;51.518;9.864;2022-12-18T08:26:29;100236.03;;;-6.99;71.47
20710;BME280;10516;51.518;9.864;2022-12-18T08:28:56;100235.09;;;-7.11;72.77
20710;BME280;10516;51.518;9.864;2022-12-18T08:31:22;100237.06;;;-7.14;73.07
20710;BME280;10516;51.518;9.864;2022-12-18T08:33:49;100237.38;;;-7.06;73.41
20710;BME280;10516;51.518;9.864;2022-12-18T08:36:15;100252.22;;;-7.21;74.08
20710;BME280;10516;51.518;9.864;2022-12-18T08:38:41;100252.63;;;-7.02;73.79
20710;BME280;10516;51.518;9.864;2022-12-18T08:41:08;100250.34;;;-7.06;74.40
20710;BME280;10516;51.518;9.864;2022-12-18T08:43:35;100248.19;;;-7.12;74.37
20710;BME280;10516;51.518;9.864;2022-12-18T08:46:20;100231.84;;;-7.27;75.32
20710;BME280;10516;51.518;9.864;2022-12-18T08:48:47;100248.56;;;-7.18;75.71
20710;BME280;10516;51.518;9.864;2022-12-18T08:51:13;100249.19;;;-7.27;76.29
20710;BME280;10516;51.518;9.864;2022-12-18T08:53:40;100233.00;;;-7.18;76.11
20710;BME280;10516;51.518;9.864;2022-12-18T08:56:06;100237.19;;;-6.91;75.63
20710;BME280;10516;51.518;9.864;2022-12-18T08:58:32;100209.69;;;-7.06;76.67
20710;BME280;10516;51.518;9.864;2022-12-18T09:01:05;100217.16;;;-6.89;76.10
20710;BME280;10516;51.518;9.864;2022-12-18T09:03:31;100220.03;;;-6.80;75.72
20710;BME280;10516;51.518;9.864;2022-12-18T09:05:57;100208.06;;;-6.70;74.85
20710;BME280;10516;51.518;9.864;2022-12-18T09:08:23;100221.53;;;-6.53;74.74
20710;BME280;10516;51.518;9.864;2022-12-18T09:10:50;100213.91;;;-6.67;74.42
20710;BME280;10516;51.518;9.864;2022-12-18T09:13:16;100199.38;;;-6.69;75.23
20710;BME280;10516;51.518;9.864;2022-12-18T09:15:47;100213.09;;;-6.44;74.22
20710;BME280;10516;51.518;9.864;2022-12-18T09:18:15;100219.91;;;-6.54;74.76
20710;BME280;10516;51.518;9.864;2022-12-18T09:20:40;100205.34;;;-6.56;75.17
20710;BME280;10516;51.518;9.864;2022-12-18T09:23:06;100225.56;;;-6.36;74.00
20710;BME280;10516;51.518;9.864;2022-12-18T09:25:33;100225.00;;;-6.29;73.99
20710;BME280;10516;51.518;9.864;2022-12-18T09:28:14;100223.97;;;-6.26;73.78
20710;BME280;10516;51.518;9.864;2022-12-18T09:30:48;100224.59;;;-6.23;74.13
20710;BME280;10516;51.518;9.864;2022-12-18T09:33:14;100214.69;;;-6.18;73.70
20710;BME280;10516;51.518;9.864;2022-12-18T09:35:41;100228.19;;;-6.13;73.46
20710;BME280;10516;51.518;9.864;2022-12-18T09:38:09;100222.16;;;-6.13;73.70
20710;BME280;10516;51.518;9.864;2022-12-18T09:40:43;100223.13;;;-6.14;74.38
20710;BME280;10516;51.518;9.864;2022-12-18T09:43:42;100224.81;;;-6.26;75.23
20710;BME280;10516;51.518;9.864;2022-12-18T09:46:19;100220.34;;;-6.24;74.36
20710;BME280;10516;51.518;9.864;2022-12-18T09:48:52;100215.38;;;-6.03;74.31
20710;BME280;10516;51.518;9.864;2022-12-18T09:51:25;100193.88;;;-6.05;74.14
20710;BME280;10516;51.518;9.864;2022-12-18T09:53:56;100195.72;;;-6.18;74.90
20710;BME280;10516;51.518;9.864;2022-12-18T09:56:25;100191.81;;;-6.13;74.82
20710;BME280;10516;51.518;9.864;2022-12-18T09:58:58;100215.31;;;-6.14;75.86
20710;BME280;10516;51.518;9.864;2022-12-18T10:01:24;100214.53;;;-6.27;77.49
20710;BME280;10516;51.518;9.864;2022-12-18T10:03:52;100218.34;;;-6.20;77.03
20710;BME280;10516;51.518;9.864;2022-12-18T10:06:25;100225.22;;;-6.19;77.13
20710;BME280;10516;51.518;9.864;2022-12-18T10:09:15;100225.66;;;-6.01;76.69
20710;BME280;10516;51.518;9.864;2022-12-18T10:12:06;100224.22;;;-6.29;78.11
20710;BME280;10516;51.518;9.864;2022-12-18T10:19:54;100217.81;;;-6.13;79.20
20710;BME280;10516;51.518;9.864;2022-12-18T10:22:57;100212.84;;;-5.81;77.81
20710;BME280;10516;51.518;9.864;2022-12-18T10:25:40;100226.72;;;-6.04;79.63
20710;BME280;10516;51.518;9.864;2022-12-18T10:28:16;100217.09;;;-5.91;79.35
20710;BME280;10516;51.518;9.864;2022-12-18T10:30:43;100214.81;;;-5.95;80.80
20710;BME280;10516;51.518;9.864;2022-12-18T10:33:13;100202.44;;;-5.92;80.77
20710;BME280;10516;51.518;9.864;2022-12-18T10:35:41;100218.59;;;-5.65;80.75
20710;BME280;10516;51.518;9.864;2022-12-18T10:38:22;100209.03;;;-5.64;80.61
20710;BME280;10516;51.518;9.864;2022-12-18T10:43:15;100230.78;;;-5.54;81.39
20710;BME280;10516;51.518;9.864;2022-12-18T10:45:41;100222.41;;;-5.58;81.22
20710;BME280;10516;51.518;9.864;2022-12-18T10:48:21;100220.72;;;-5.59;81.97
20710;BME280;10516;51.518;9.864;2022-12-18T10:50:48;100219.00;;;-5.47;81.32
20710;BME280;10516;51.518;9.864;2022-12-18T10:53:23;100224.78;;;-5.44;81.84
20710;BME280;10516;51.518;9.864;2022-12-18T10:55:52;100209.31;;;-5.45;82.03
20710;BME280;10516;51.518;9.864;2022-12-18T11:03:38;100201.09;;;-5.28;81.19
20710;BME280;10516;51.518;9.864;2022-12-18T11:06:18;100202.19;;;-5.08;81.05
20710;BME280;10516;51.518;9.864;2022-12-18T11:08:58;100181.00;;;-5.04;81.57
20710;BME280;10516;51.518;9.864;2022-12-18T11:11:24;100182.19;;;-5.08;81.11
20710;BME280;10516;51.518;9.864;2022-12-18T11:14:03;100185.16;;;-4.90;81.67
20710;BME280;10516;51.518;9.864;2022-12-18T11:16:34;100176.28;;;-4.66;80.43
20710;BME280;10516;51.518;9.864;2022-12-18T11:19:20;100176.03;;;-4.85;80.84
20710;BME280;10516;51.518;9.864;2022-12-18T11:21:47;100168.94;;;-4.72;80.72
20710;BME280;10516;51.518;9.864;2022-12-18T11:24:38;100170.88;;;-4.96;81.74
20710;BME280;10516;51.518;9.864;2022-12-18T11:27:16;100164.91;;;-4.65;81.01
20710;BME280;10516;51.518;9.864;2022-12-18T11:29:43;100153.56;;;-4.97;82.19
20710;BME280;10516;51.518;9.864;2022-12-18T11:34:44;100163.63;;;-4.81;83.38
20710;BME280;10516;51.518;9.864;2022-12-18T11:37:12;100162.56;;;-4.79;81.85
20710;BME280;10516;51.518;9.864;2022-12-18T11:39:50;100145.44;;;-4.38;80.47
20710;BME280;10516;51.518;9.864;2022-12-18T11:42:38;100144.66;;;-4.50;81.27
20710;BME280;10516;51.518;9.864;2022-12-18T11:47:49;100134.25;;;-4.61;80.17
20710;BME280;10516;51.518;9.864;2022-12-18T11:53:01;100120.38;;;-4.08;79.60
20710;BME280;10516;51.518;9.864;2022-12-18T11:55:38;100116.63;;;-4.26;80.24
20710;BME280;10516;51.518;9.864;2022-12-18T12:17:37;100090.00;;;-4.29;80.71
20710;BME280;10516;51.518;9.864;2022-12-18T12:25:30;100077.22;;;-4.01;80.22
20710;BME280;10516;51.518;9.864;2022-12-18T12:28:15;100068.03;;;-3.95;79.32
20710;BME280;10516;51.518;9.864;2022-12-18T12:31:16;100063.41;;;-3.92;79.98
20710;BME280;10516;51.518;9.864;2022-12-18T12:39:08;100046.78;;;-4.64;81.47
20710;BME280;10516;51.518;9.864;2022-12-18T12:41:38;100042.06;;;-4.38;81.46
20710;BME280;10516;51.518;9.864;2022-12-18T12:44:39;100050.50;;;-4.14;81.51
20710;BME280;10516;51.518;9.864;2022-12-18T12:47:18;100049.72;;;-4.25;80.24
20710;BME280;10516;51.518;9.864;2022-12-18T12:49:47;100046.72;;;-4.21;81.72
20710;BME280;10516;51.518;9.864;2022-12-18T12:52:37;100050.34;;;-4.76;83.05
20710;BME280;10516;51.518;9.864;2022-12-18T12:55:12;100052.59;;;-4.28;81.54
20710;BME280;10516;51.518;9.864;2022-12-18T12:57:40;100047.31;;;-4.17;82.20
20710;BME280;10516;51.518;9.864;2022-12-18T13:00:12;100036.72;;;-4.36;82.02
20710;BME280;10516;51.518;9.864;2022-12-18T13:02:45;100043.19;;;-3.99;80.69
20710;BME280;10516;51.518;9.864;2022-12-18T13:06:07;100045.91;;;-4.21;82.16
20710;BME280;10516;51.518;9.864;2022-12-18T13:08:28;100050.63;;;-3.95;81.42
20710;BME280;10516;51.518;9.864;2022-12-18T13:10:55;100026.78;;;-3.69;80.67
20710;BME280;10516;51.518;9.864;2022-12-18T13:13:55;100042.59;;;-3.61;80.17
20710;BME280;10516;51.518;9.864;2022-12-18T13:16:23;100035.69;;;-3.93;80.36
20710;BME280;10516;51.518;9.864;2022-12-18T13:18:54;100032.22;;;-3.93;80.60
20710;BME280;10516;51.518;9.864;2022-12-18T13:21:27;100047.41;;;-4.39;82.20
20710;BME280;10516;51.518;9.864;2022-12-18T13:23:53;100042.63;;;-4.03;81.39
20710;BME280;10516;51.518;9.864;2022-12-18T13:34:16;100042.41;;;-3.90;80.20
20710;BME280;10516;51.518;9.864;2022-12-18T13:36:42;100036.06;;;-3.46;80.50
20710;BME280;10516;51.518;9.864;2022-12-18T13:41:46;100037.22;;;-3.30;78.46
20710;BME280;10516;51.518;9.864;2022-12-18T13:44:24;100035.16;;;-3.66;79.46
20710;BME280;10516;51.518;9.864;2022-12-18T13:46:51;100035.34;;;-3.28;79.26
20710;BME280;10516;51.518;9.864;2022-12-18T13:49:23;100027.41;;;-4.18;80.36
20710;BME280;10516;51.518;9.864;2022-12-18T13:51:55;100051.06;;;-3.90;80.26
20710;BME280;10516;51.518;9.864;2022-12-18T13:56:50;100035.81;;;-3.43;78.76
20710;BME280;10516;51.518;9.864;2022-12-18T14:01:57;100041.72;;;-3.71;80.04
20710;BME280;10516;51.518;9.864;2022-12-18T14:04:29;100039.75;;;-4.52;79.92
20710;BME280;10516;51.518;9.864;2022-12-18T14:06:58;100033.97;;;-4.56;81.42
20710;BME280;10516;51.518;9.864;2022-12-18T14:09:29;100029.97;;;-4.07;81.24
20710;BME280;10516;51.518;9.864;2022-12-18T14:11:55;100016.59;;;-4.34;81.70
20710;BME280;10516;51.518;9.864;2022-12-18T14:14:44;100027.31;;;-4.28;81.45
20710;BME280;10516;51.518;9.864;2022-12-18T14:17:11;100033.13;;;-3.83;80.08
20710;BME280;10516;51.518;9.864;2022-12-18T14:19:41;100027.47;;;-4.29;81.43
20710;BME280;10516;51.518;9.864;2022-12-18T14:22:15;100012.75;;;-3.68;80.07
20710;BME280;10516;51.518;9.864;2022-12-18T14:24:41;100010.44;;;-4.33;79.20
20710;BME280;10516;51.518;9.864;2022-12-18T14:27:36;100014.78;;;-4.02;79.95
20710;BME280;10516;51.518;9.864;2022-12-18T14:32:59;99994.09;;;-3.73;79.75
20710;BME280;10516;51.518;9.864;2022-12-18T14:35:24;99990.09;;;-3.98;79.70
20710;BME280;10516;51.518;9.864;2022-12-18T14:37:50;99986.59;;;-4.29;79.74
20710;BME280;10516;51.518;9.864;2022-12-18T14:40:15;99983.50;;;-4.02;80.21
20710;BME280;10516;51.518;9.864;2022-12-18T14:42:40;99986.22;;;-4.04;80.37
20710;BME280;10516;51.518;9.864;2022-12-18T14:45:35;99998.47;;;-3.95;79.75